Time;durP1;ratioP1;P1;durP2;ratioP2;P2;SDS_P1;SDS_P2;PMS_P1;PMS_P2;Temp;Humidity;BMP_temperature;BMP_pressure;BME280_temperature;BME280_humidity;BME280_pressure;Samples;Min_cycle;Max_cycle;Signal;HPM_P1;HPM_P2
2024/03/10 00:01:35;;;;;;;;;;;;;;;15.76;45.02;101204.28;4960911;29;1029;-40
2024/03/10 00:04:00;;;;;;;;;;;;;;;16.41;44.70;101211.78;4947563;29;1089;-43
2024/03/10 00:06:26;;;;;;;;;;;;;;;15.91;45.12;101212.22;4953035;29;1981;-45
2024/03/10 00:08:53;;;;;;;;;;;;;;;16.32;44.82;101212.34;4960656;29;1533;-42
2024/03/10 00:11:18;;;;;;;;;;;;;;;17.21;42.45;101206.59;4961219;29;1225;-44
2024/03/10 00:13:44;;;;;;;;;;;;;;;15.96;44.82;101210.16;4961193;29;1061;-42
2024/03/10 00:16:09;;;;;;;;;;;;;;;16.83;43.80;101203.72;4960701;29;1061;-44
2024/03/10 00:18:36;;;;;;;;;;;;;;;16.74;43.61;101201.69;4947572;29;1050;-41
2024/03/10 00:21:02;;;;;;;;;;;;;;;15.86;44.82;101204.56;4960634;29;1061;-45
2024/03/10 00:23:27;;;;;;;;;;;;;;;15.58;45.17;101200.94;4948190;29;2439;-41
2024/03/10 00:25:53;;;;;;;;;;;;;;;17.02;43.56;101194.50;4960445;29;1089;-42
2024/03/10 00:28:19;;;;;;;;;;;;;;;16.18;44.45;101194.69;4960592;29;1906;-41
2024/03/10 00:30:47;;;;;;;;;;;;;;;15.66;45.42;101190.72;4960626;29;1069;-40
2024/03/10 00:33:13;;;;;;;;;;;;;;;16.09;45.29;101186.34;4947018;29;1223;-41
2024/03/10 00:35:38;;;;;;;;;;;;;;;16.26;44.53;101187.06;4960294;29;1137;-41
2024/03/10 00:38:04;;;;;;;;;;;;;;;15.60;45.47;101180.50;4954152;29;1161;-44
2024/03/10 00:40:30;;;;;;;;;;;;;;;16.36;44.90;101182.88;4954354;29;1141;-39
2024/03/10 00:42:56;;;;;;;;;;;;;;;15.90;45.24;101171.56;4960261;29;1177;-41
2024/03/10 00:45:22;;;;;;;;;;;;;;;15.40;46.08;101166.69;4959824;29;1026;-42
2024/03/10 00:47:48;;;;;;;;;;;;;;;17.29;42.56;101158.19;4948036;29;1976;-42
2024/03/10 00:50:14;;;;;;;;;;;;;;;15.95;45.25;101160.66;4960551;29;1128;-44
2024/03/10 00:52:40;;;;;;;;;;;;;;;15.58;46.17;101165.66;4959877;29;1101;-43
2024/03/10 00:55:06;;;;;;;;;;;;;;;16.88;41.85;101044.81;4959755;29;2596;-45
2024/03/10 00:57:32;;;;;;;;;;;;;;;16.10;44.66;101161.50;4947894;29;1030;-41
2024/03/10 00:59:58;;;;;;;;;;;;;;;16.31;45.17;101152.25;4960137;29;1005;-44
2024/03/10 01:02:23;;;;;;;;;;;;;;;16.52;43.93;101150.00;4959831;29;1009;-45
2024/03/10 01:04:49;;;;;;;;;;;;;;;15.71;45.27;101150.66;4960044;29;1246;-44
2024/03/10 01:07:15;;;;;;;;;;;;;;;15.55;44.67;101153.41;4958802;28;1902;-42
2024/03/10 01:09:40;;;;;;;;;;;;;;;16.56;44.47;101148.84;4959760;29;1038;-43
2024/03/10 01:12:06;;;;;;;;;;;;;;;16.04;44.91;101140.69;4959697;29;1174;-44
2024/03/10 01:14:33;;;;;;;;;;;;;;;15.47;45.30;101143.28;4947762;29;1114;-42
2024/03/10 01:17:04;;;;;;;;;;;;;;;16.97;43.68;101147.00;4946712;29;971;-40
2024/03/10 01:19:33;;;;;;;;;;;;;;;16.21;44.38;101149.34;4958499;29;1128;-41
2024/03/10 01:21:59;;;;;;;;;;;;;;;15.54;45.02;101147.28;4948459;29;1058;-44
2024/03/10 01:24:24;;;;;;;;;;;;;;;15.44;45.76;101148.78;4942440;29;2468;-42
2024/03/10 01:26:50;;;;;;;;;;;;;;;16.86;43.12;101147.75;4959013;29;1907;-39
2024/03/10 01:29:16;;;;;;;;;;;;;;;15.61;45.48;101146.88;4959300;29;1205;-40
2024/03/10 01:31:42;;;;;;;;;;;;;;;16.35;44.81;101148.47;4959193;29;1022;-46
2024/03/10 01:34:09;;;;;;;;;;;;;;;16.46;43.99;101145.09;4959031;29;962;-43
2024/03/10 01:36:35;;;;;;;;;;;;;;;15.60;45.22;101139.88;4959262;29;1197;-43
2024/03/10 01:39:01;;;;;;;;;;;;;;;15.37;45.08;101140.34;4957997;29;1129;-42
2024/03/10 01:41:26;;;;;;;;;;;;;;;16.00;45.37;101134.72;4948396;29;1122;-42
2024/03/10 01:43:52;;;;;;;;;;;;;;;17.04;42.95;101130.63;4954260;29;1006;-43
2024/03/10 01:46:18;;;;;;;;;;;;;;;15.76;45.05;101124.72;4959027;29;1902;-45
2024/03/10 01:48:44;;;;;;;;;;;;;;;15.31;45.53;101124.84;4958993;29;1145;-43
2024/03/10 01:51:09;;;;;;;;;;;;;;;16.78;44.29;101134.13;4959230;29;1026;-42
2024/03/10 01:53:35;;;;;;;;;;;;;;;16.62;43.80;101127.19;4957737;29;2422;-40
2024/03/10 01:56:03;;;;;;;;;;;;;;;15.72;45.03;101117.88;4956775;29;1188;-43
2024/03/10 01:58:32;;;;;;;;;;;;;;;15.42;45.22;101126.81;4958638;29;903;-42
2024/03/10 02:01:04;;;;;;;;;;;;;;;15.35;45.58;101125.50;4950362;29;1110;-41
2024/03/10 02:03:29;;;;;;;;;;;;;;;16.26;44.25;101126.88;4955601;29;1108;-44
2024/03/10 02:05:55;;;;;;;;;;;;;;;15.49;45.38;101125.50;4958715;29;1066;-40
2024/03/10 02:08:20;;;;;;;;;;;;;;;17.54;42.15;101136.06;4952895;29;1981;-39
2024/03/10 02:10:48;;;;;;;;;;;;;;;16.30;44.15;101134.63;4958832;29;1100;-42
2024/03/10 02:13:16;;;;;;;;;;;;;;;16.39;44.61;101134.03;4958581;29;1030;-42
2024/03/10 02:15:42;;;;;;;;;;;;;;;17.12;42.25;101131.81;4958725;29;1142;-44
2024/03/10 02:18:07;;;;;;;;;;;;;;;15.93;44.98;101127.22;4958786;29;1200;-43
2024/03/10 02:20:33;;;;;;;;;;;;;;;16.83;43.93;101125.84;4957968;28;883;-43
2024/03/10 02:22:59;;;;;;;;;;;;;;;16.38;44.03;101132.31;4958441;29;2435;-44
2024/03/10 02:25:34;;;;;;;;;;;;;;;15.69;44.88;101127.81;4958518;29;1018;-40
2024/03/10 02:28:09;;;;;;;;;;;;;;;15.38;45.01;101130.63;4958710;29;1918;-43
2024/03/10 02:30:42;;;;;;;;;;;;;;;16.19;44.23;101127.38;4958691;29;1009;-43
2024/03/10 02:47:15;;;;;;;;;;;;;;;16.88;43.28;101135.19;4958285;29;1910;-40
2024/03/10 02:49:41;;;;;;;;;;;;;;;15.68;45.09;101127.00;4958031;29;1006;-42
2024/03/10 02:52:08;;;;;;;;;;;;;;;15.49;44.54;101117.53;4958633;29;1053;-42
2024/03/10 02:54:34;;;;;;;;;;;;;;;17.37;42.51;101114.16;4957773;29;2765;-43
2024/03/10 02:56:59;;;;;;;;;;;;;;;16.02;44.64;101122.22;4954059;29;1149;-42
2024/03/10 02:59:25;;;;;;;;;;;;;;;15.59;44.70;101116.94;4958321;28;1173;-40
2024/03/10 03:01:50;;;;;;;;;;;;;;;16.70;44.12;101125.81;4958461;29;1112;-43
2024/03/10 03:04:16;;;;;;;;;;;;;;;16.52;43.59;101121.63;4958216;29;1163;-41
2024/03/10 03:06:41;;;;;;;;;;;;;;;15.65;44.83;101120.06;4957661;29;1927;-41
2024/03/10 03:09:08;;;;;;;;;;;;;;;17.09;43.16;101124.06;4957682;29;1457;-41
2024/03/10 03:11:33;;;;;;;;;;;;;;;15.78;44.98;101120.13;4958305;29;1200;-40
2024/03/10 03:14:01;;;;;;;;;;;;;;;16.23;45.16;101118.25;4949785;29;1053;-43
2024/03/10 03:16:29;;;;;;;;;;;;;;;16.72;43.25;101116.78;4954414;29;1007;-41
2024/03/10 03:18:56;;;;;;;;;;;;;;;15.73;44.72;101114.28;4957671;29;1073;-45
2024/03/10 03:21:22;;;;;;;;;;;;;;;17.32;42.45;101116.28;4947543;29;1228;-44
2024/03/10 03:23:47;;;;;;;;;;;;;;;16.03;44.63;101105.31;4955749;29;2611;-42
2024/03/10 03:26:14;;;;;;;;;;;;;;;15.53;44.83;101119.03;4958162;29;1057;-40
2024/03/10 03:28:39;;;;;;;;;;;;;;;17.30;42.56;101120.03;4958130;29;1045;-40
2024/03/10 03:31:05;;;;;;;;;;;;;;;15.94;44.77;101118.31;4957383;28;1160;-43
2024/03/10 03:33:31;;;;;;;;;;;;;;;15.59;44.84;101127.56;4952843;29;958;-42
2024/03/10 03:35:58;;;;;;;;;;;;;;;17.15;42.87;101127.25;4957633;29;1082;-45
2024/03/10 03:38:24;;;;;;;;;;;;;;;16.02;44.42;101118.69;4961378;29;1013;-42
2024/03/10 03:40:50;;;;;;;;;;;;;;;15.58;45.00;101123.22;4961476;29;1141;-42
2024/03/10 03:43:15;;;;;;;;;;;;;;;16.97;42.78;101127.53;4961381;29;1481;-44
2024/03/10 03:45:41;;;;;;;;;;;;;;;15.80;45.09;101117.38;4961154;29;1049;-43
2024/03/10 03:48:06;;;;;;;;;;;;;;;16.36;44.65;101123.59;4961741;29;1911;-44
2024/03/10 03:50:32;;;;;;;;;;;;;;;16.57;43.46;101121.31;4961120;29;1101;-43
2024/03/10 03:52:57;;;;;;;;;;;;;;;15.64;45.10;101129.00;4961169;29;1034;-44
2024/03/10 03:55:23;;;;;;;;;;;;;;;15.63;45.20;101129.91;4960889;29;1085;-44
2024/03/10 03:57:49;;;;;;;;;;;;;;;15.93;44.58;101128.09;4961258;29;888;-43
2024/03/10 04:00:15;;;;;;;;;;;;;;;15.34;45.32;101134.38;4961905;29;1136;-42
2024/03/10 04:02:46;;;;;;;;;;;;;;;17.40;42.10;101134.34;4960769;29;1165;-42
2024/03/10 04:05:12;;;;;;;;;;;;;;;15.83;44.65;101135.75;4960902;29;1073;-43
2024/03/10 04:07:38;;;;;;;;;;;;;;;17.30;42.39;101136.81;4961100;29;1970;-40
2024/03/10 04:10:05;;;;;;;;;;;;;;;16.88;42.67;101137.84;4948197;29;1046;-41
2024/03/10 04:12:31;;;;;;;;;;;;;;;15.95;44.73;101134.13;4960860;29;1041;-41
2024/03/10 04:14:57;;;;;;;;;;;;;;;15.60;44.74;101137.25;4948464;29;1212;-45
2024/03/10 04:17:22;;;;;;;;;;;;;;;17.55;41.56;101135.06;4960761;29;1233;-44
2024/03/10 04:19:48;;;;;;;;;;;;;;;16.04;44.12;101130.06;4960908;29;1073;-39
2024/03/10 04:22:14;;;;;;;;;;;;;;;16.56;44.02;101134.69;4960512;29;863;-41
2024/03/10 04:24:39;;;;;;;;;;;;;;;16.85;42.65;101139.88;4959196;29;1037;-41
2024/03/10 04:27:08;;;;;;;;;;;;;;;15.87;44.32;101144.38;4960669;29;1985;-42
2024/03/10 04:29:34;;;;;;;;;;;;;;;15.47;44.95;101143.28;4960994;29;1042;-40
2024/03/10 04:31:59;;;;;;;;;;;;;;;16.63;43.23;101144.81;4959957;29;1065;-40
2024/03/10 04:34:25;;;;;;;;;;;;;;;15.69;44.75;101138.44;4957720;29;1407;-41
2024/03/10 04:36:50;;;;;;;;;;;;;;;16.39;44.30;101142.84;4959923;29;1013;-42
2024/03/10 04:39:16;;;;;;;;;;;;;;;16.50;43.55;101144.78;4960195;29;1257;-40
2024/03/10 04:41:41;;;;;;;;;;;;;;;15.70;44.93;101145.47;4960800;28;1256;-41
2024/03/10 04:44:07;;;;;;;;;;;;;;;17.12;42.72;101149.56;4959533;29;1122;-45
2024/03/10 04:46:32;;;;;;;;;;;;;;;16.13;44.38;101147.22;4955912;29;1980;-44
2024/03/10 04:48:58;;;;;;;;;;;;;;;15.57;44.68;101145.34;4960639;29;1146;-42
2024/03/10 04:51:26;;;;;;;;;;;;;;;17.05;42.82;101150.94;4959939;29;1045;-42
2024/03/10 04:53:52;;;;;;;;;;;;;;;16.10;44.30;101150.91;4952062;29;1056;-46
2024/03/10 04:56:17;;;;;;;;;;;;;;;15.58;44.79;101153.22;4960495;29;1180;-45
2024/03/10 04:58:43;;;;;;;;;;;;;;;17.04;43.02;101160.72;4959682;29;859;-40
2024/03/10 05:01:09;;;;;;;;;;;;;;;16.01;44.30;101155.00;4953660;29;1346;-43
2024/03/10 05:03:36;;;;;;;;;;;;;;;15.45;45.43;101154.94;4954837;29;943;-42
2024/03/10 05:06:01;;;;;;;;;;;;;;;16.54;44.27;101164.03;4960274;29;1118;-40
2024/03/10 05:08:27;;;;;;;;;;;;;;;15.87;44.99;101157.63;4958875;29;1980;-42
2024/03/10 05:10:52;;;;;;;;;;;;;;;17.77;41.17;101157.50;4959854;29;1032;-44
2024/03/10 05:13:18;;;;;;;;;;;;;;;17.69;40.81;101155.38;4956284;29;1081;-43
2024/03/10 05:15:45;;;;;;;;;;;;;;;16.95;42.27;101162.19;4950640;29;1033;-43
2024/03/10 05:18:10;;;;;;;;;;;;;;;16.67;43.05;101145.47;4959881;29;1104;-41
2024/03/10 05:20:36;;;;;;;;;;;;;;;16.31;43.45;101163.75;4950375;29;1189;-42
2024/03/10 05:23:01;;;;;;;;;;;;;;;16.14;44.13;101164.81;4958523;29;883;-42
2024/03/10 05:25:29;;;;;;;;;;;;;;;15.95;44.32;101162.47;4959815;29;1050;-43
2024/03/10 05:27:54;;;;;;;;;;;;;;;15.79;44.46;101166.09;4959543;29;1907;-43
2024/03/10 05:30:20;;;;;;;;;;;;;;;15.68;45.04;101161.47;4959905;29;1220;-44
2024/03/10 05:32:46;;;;;;;;;;;;;;;15.58;45.21;101163.00;4947259;29;1149;-41
2024/03/10 05:35:11;;;;;;;;;;;;;;;15.38;45.28;101163.25;4949639;29;888;-41
2024/03/10 05:37:37;;;;;;;;;;;;;;;15.39;45.53;101167.63;4959391;29;1109;-40
2024/03/10 05:40:06;;;;;;;;;;;;;;;16.95;42.04;101167.50;4959924;29;1187;-42
2024/03/10 05:42:31;;;;;;;;;;;;;;;16.62;42.54;101175.00;4959491;29;1041;-45
2024/03/10 05:45:02;;;;;;;;;;;;;;;16.06;43.73;101167.97;4959138;29;1078;-43
2024/03/10 05:47:27;;;;;;;;;;;;;;;15.62;44.93;101175.09;4955505;29;1880;-43
2024/03/10 05:49:56;;;;;;;;;;;;;;;15.45;45.14;101173.50;4950906;29;1105;-41
2024/03/10 05:52:21;;;;;;;;;;;;;;;15.45;45.30;101173.50;4959000;29;1209;-41
2024/03/10 05:54:50;;;;;;;;;;;;;;;16.98;41.92;101177.09;4958740;28;1066;-41
2024/03/10 05:57:16;;;;;;;;;;;;;;;16.96;41.51;101173.69;4956875;29;1132;-41
2024/03/10 05:59:44;;;;;;;;;;;;;;;16.09;43.38;101170.44;4951175;29;1121;-41
2024/03/10 06:02:13;;;;;;;;;;;;;;;15.73;44.28;101169.13;4958874;29;1018;-44
2024/03/10 06:04:39;;;;;;;;;;;;;;;15.54;44.55;101164.97;4959309;29;1009;-42
2024/03/10 06:07:06;;;;;;;;;;;;;;;15.59;44.80;101162.91;4958878;29;1931;-42
2024/03/10 06:09:34;;;;;;;;;;;;;;;17.06;41.46;101172.09;4958705;29;1054;-44
2024/03/10 06:12:00;;;;;;;;;;;;;;;16.87;41.78;101176.00;4941978;29;1244;-42
2024/03/10 06:14:25;;;;;;;;;;;;;;;16.13;43.47;101176.41;4959051;29;1201;-40
2024/03/10 06:16:51;;;;;;;;;;;;;;;15.79;44.39;101179.34;4945770;29;1157;-41
2024/03/10 06:25:22;;;;;;;;;;;;;;;17.29;41.16;101177.66;4912109;29;1303;-41
2024/03/10 06:27:48;;;;;;;;;;;;;;;16.55;42.36;101170.19;4899348;29;1903;-41
2024/03/10 06:30:14;;;;;;;;;;;;;;;16.05;43.90;101184.00;4932188;29;1058;-45
2024/03/10 06:32:40;;;;;;;;;;;;;;;15.71;44.16;101177.19;4958442;29;1100;-45
2024/03/10 06:35:08;;;;;;;;;;;;;;;15.51;45.13;101176.63;4958122;29;1114;-42
2024/03/10 06:37:34;;;;;;;;;;;;;;;16.52;42.87;101181.84;4958435;29;1041;-43
2024/03/10 06:40:00;;;;;;;;;;;;;;;17.59;40.57;101184.47;4958265;29;1069;-44
2024/03/10 06:42:25;;;;;;;;;;;;;;;16.66;42.38;101186.25;4958002;29;1131;-41
2024/03/10 06:44:51;;;;;;;;;;;;;;;16.16;43.38;101184.16;4956296;29;1125;-44
2024/03/10 06:47:16;;;;;;;;;;;;;;;15.78;44.23;101188.28;4957493;29;1910;-40
2024/03/10 06:49:42;;;;;;;;;;;;;;;15.62;44.84;101185.72;4958296;29;1081;-40
2024/03/10 06:52:07;;;;;;;;;;;;;;;15.72;44.87;101192.16;4958071;29;1045;-44
2024/03/10 06:54:34;;;;;;;;;;;;;;;17.20;41.29;101197.75;4958330;29;1073;-41
2024/03/10 06:56:59;;;;;;;;;;;;;;;16.70;42.06;101190.41;4957879;29;1173;-45
2024/03/10 06:59:25;;;;;;;;;;;;;;;16.11;43.54;101188.91;4948804;29;851;-44
2024/03/10 07:01:54;;;;;;;;;;;;;;;15.83;44.36;101195.94;4958525;29;1011;-43
2024/03/10 07:04:19;;;;;;;;;;;;;;;15.61;44.75;101195.47;4945741;29;1039;-42
2024/03/10 07:06:46;;;;;;;;;;;;;;;15.95;44.14;101202.28;4962381;28;1977;-42
2024/03/10 07:09:11;;;;;;;;;;;;;;;17.29;41.19;101201.59;4957827;28;1168;-43
2024/03/10 07:11:39;;;;;;;;;;;;;;;16.71;42.24;101197.44;4952660;29;1099;-41
2024/03/10 07:14:04;;;;;;;;;;;;;;;16.18;43.16;101195.53;4964614;28;1170;-44
2024/03/10 07:16:30;;;;;;;;;;;;;;;15.83;44.18;101194.13;4944399;29;1136;-42
2024/03/10 07:18:55;;;;;;;;;;;;;;;15.57;45.07;101196.59;4954668;29;1125;-43
2024/03/10 07:21:21;;;;;;;;;;;;;;;15.48;45.41;101197.19;4964344;28;1066;-41
2024/03/10 07:23:46;;;;;;;;;;;;;;;16.84;42.46;101200.13;4956569;29;1039;-41
2024/03/10 07:26:12;;;;;;;;;;;;;;;17.39;40.88;101201.81;4964128;29;1078;-43
2024/03/10 07:28:37;;;;;;;;;;;;;;;16.39;42.87;101195.94;4963297;29;1984;-41
2024/03/10 07:31:04;;;;;;;;;;;;;;;15.95;43.88;101200.47;4964448;28;1122;-45
2024/03/10 07:33:32;;;;;;;;;;;;;;;15.76;44.57;101196.34;4964339;28;1132;-41
2024/03/10 07:35:57;;;;;;;;;;;;;;;15.66;45.01;101189.88;4963900;29;918;-41
2024/03/10 07:38:23;;;;;;;;;;;;;;;17.13;41.67;101193.84;4964187;28;1185;-41
2024/03/10 07:40:48;;;;;;;;;;;;;;;16.78;42.15;101192.56;4964472;29;1050;-42
2024/03/10 07:43:15;;;;;;;;;;;;;;;16.11;43.90;101186.25;4955342;28;1165;-47
2024/03/10 07:45:42;;;;;;;;;;;;;;;15.77;44.41;101186.56;4960626;29;1429;-40
2024/03/10 07:48:07;;;;;;;;;;;;;;;15.57;45.10;101179.84;4963910;28;1910;-42
2024/03/10 07:50:35;;;;;;;;;;;;;;;15.41;45.58;101184.28;4964246;29;1073;-44
2024/03/10 07:53:00;;;;;;;;;;;;;;;16.02;44.11;101185.91;4964414;29;1054;-42
2024/03/10 07:55:30;;;;;;;;;;;;;;;17.26;41.38;101185.84;4964024;28;1287;-42
2024/03/10 07:57:59;;;;;;;;;;;;;;;16.76;42.26;101184.72;4964315;29;931;-47
2024/03/10 08:00:26;;;;;;;;;;;;;;;16.06;43.88;101178.59;4963766;29;1022;-42
2024/03/10 08:02:54;;;;;;;;;;;;;;;15.73;44.62;101174.44;4956247;28;1149;-43
2024/03/10 08:05:20;;;;;;;;;;;;;;;15.57;44.75;101179.84;4964313;29;1069;-43
2024/03/10 08:07:48;;;;;;;;;;;;;;;16.09;44.14;101178.41;4964186;28;1883;-47
2024/03/10 08:10:14;;;;;;;;;;;;;;;17.38;41.17;101185.00;4963139;28;1148;-45
2024/03/10 08:12:39;;;;;;;;;;;;;;;16.88;41.98;101177.69;4964175;28;1094;-44
2024/03/10 08:15:09;;;;;;;;;;;;;;;16.28;43.13;101171.91;4964380;28;1088;-40
2024/03/10 08:17:35;;;;;;;;;;;;;;;15.88;44.25;101169.97;4951513;28;1153;-38
2024/03/10 08:20:01;;;;;;;;;;;;;;;15.67;44.82;101168.56;4959871;29;1098;-40
2024/03/10 08:22:26;;;;;;;;;;;;;;;15.53;45.18;101164.13;4960855;29;998;-41
2024/03/10 08:24:52;;;;;;;;;;;;;;;16.05;44.38;101160.94;4960644;29;1153;-39
2024/03/10 08:27:17;;;;;;;;;;;;;;;17.34;41.39;101172.03;4960774;29;1983;-41
2024/03/10 08:29:43;;;;;;;;;;;;;;;16.81;42.03;101168.44;4960831;29;1141;-39
2024/03/10 08:32:09;;;;;;;;;;;;;;;16.14;43.88;101163.03;4960760;29;1157;-41
2024/03/10 08:34:35;;;;;;;;;;;;;;;15.87;44.34;101160.28;4960224;29;1041;-41
2024/03/10 08:37:01;;;;;;;;;;;;;;;15.67;44.89;101163.28;4960882;29;1022;-41
2024/03/10 08:39:28;;;;;;;;;;;;;;;15.78;44.95;101159.09;4960351;29;1093;-40
2024/03/10 08:41:53;;;;;;;;;;;;;;;17.19;41.68;101156.19;4948924;29;1240;-40
2024/03/10 08:44:19;;;;;;;;;;;;;;;16.90;42.01;101164.28;4959212;29;1160;-43
2024/03/10 08:46:44;;;;;;;;;;;;;;;16.13;43.78;101169.28;4959328;29;2427;-42
2024/03/10 08:49:11;;;;;;;;;;;;;;;15.91;44.13;101167.13;4953569;29;2247;-41
2024/03/10 08:51:37;;;;;;;;;;;;;;;15.66;44.61;101166.84;4935554;29;2110;-45
2024/03/10 08:54:07;;;;;;;;;;;;;;;15.47;45.50;101163.63;4960056;28;2042;-39
2024/03/10 08:56:34;;;;;;;;;;;;;;;15.53;45.17;101168.59;4958758;29;2280;-42
2024/03/10 08:59:00;;;;;;;;;;;;;;;16.97;42.20;101162.94;4954219;29;1761;-41
2024/03/10 09:01:25;;;;;;;;;;;;;;;17.11;41.66;101158.53;4940685;29;1856;-39
2024/03/10 09:03:53;;;;;;;;;;;;;;;16.24;43.31;101149.16;4956382;29;1030;-40
2024/03/10 09:06:18;;;;;;;;;;;;;;;15.90;44.13;101154.78;4947973;29;1018;-39
2024/03/10 09:08:46;;;;;;;;;;;;;;;15.62;44.97;101157.41;4959877;29;1906;-41
2024/03/10 09:11:12;;;;;;;;;;;;;;;15.47;45.02;101156.53;4959846;29;1101;-41
2024/03/10 09:13:38;;;;;;;;;;;;;;;15.86;44.51;101146.19;4959513;29;1089;-42
2024/03/10 09:16:03;;;;;;;;;;;;;;;17.22;41.52;101150.66;4959996;29;1145;-42
2024/03/10 09:18:29;;;;;;;;;;;;;;;17.00;41.55;101145.91;4960229;29;1061;-40
2024/03/10 09:20:57;;;;;;;;;;;;;;;16.24;43.59;101135.88;4953495;29;1129;-40
2024/03/10 09:23:23;;;;;;;;;;;;;;;15.85;44.49;101141.81;4940854;29;1106;-41
2024/03/10 09:25:48;;;;;;;;;;;;;;;15.68;44.66;101142.91;4953367;29;1035;-40
2024/03/10 09:28:17;;;;;;;;;;;;;;;15.56;45.23;101136.56;4959471;28;1911;-41
2024/03/10 09:30:42;;;;;;;;;;;;;;;17.00;42.19;101140.59;4959431;29;2585;-43
2024/03/10 09:33:09;;;;;;;;;;;;;;;17.15;41.53;101132.59;4959412;29;1010;-44
2024/03/10 09:35:35;;;;;;;;;;;;;;;16.33;43.46;101139.75;4959117;29;1027;-41
2024/03/10 09:38:04;;;;;;;;;;;;;;;15.98;44.17;101130.44;4946356;29;1197;-44
2024/03/10 09:40:29;;;;;;;;;;;;;;;15.74;44.58;101136.34;4957540;29;1157;-45
2024/03/10 09:42:59;;;;;;;;;;;;;;;15.51;45.45;101125.41;4959064;29;1045;-42
2024/03/10 09:45:25;;;;;;;;;;;;;;;16.20;44.04;101121.13;4958917;29;1096;-45
2024/03/10 09:47:51;;;;;;;;;;;;;;;17.38;41.36;101123.81;4957976;29;1910;-41
2024/03/10 09:50:34;;;;;;;;;;;;;;;16.94;42.00;101125.09;4959333;29;1077;-46
2024/03/10 09:53:00;;;;;;;;;;;;;;;16.18;43.79;101123.88;4946244;29;1043;-43
2024/03/10 09:55:27;;;;;;;;;;;;;;;15.96;44.45;101122.59;4958939;29;1144;-42
2024/03/10 09:57:53;;;;;;;;;;;;;;;15.73;44.92;101124.88;4941891;29;1046;-45
2024/03/10 10:00:23;;;;;;;;;;;;;;;15.53;45.17;101121.69;4958300;29;1992;-46
2024/03/10 10:02:51;;;;;;;;;;;;;;;16.82;42.64;101127.63;4957829;29;1116;-43
2024/03/10 10:05:29;;;;;;;;;;;;;;;17.37;41.29;101111.50;4958983;29;1133;-40
2024/03/10 10:07:56;;;;;;;;;;;;;;;16.42;43.30;101101.94;4949627;29;1903;-44
2024/03/10 10:10:22;;;;;;;;;;;;;;;16.01;44.35;101099.28;4941479;29;1156;-43
2024/03/10 10:12:49;;;;;;;;;;;;;;;15.77;45.12;101088.41;4958030;29;1359;-41
2024/03/10 10:15:21;;;;;;;;;;;;;;;15.59;45.57;101090.44;4958827;29;1022;-42
2024/03/10 10:17:56;;;;;;;;;;;;;;;15.46;45.56;101101.84;4958443;29;1303;-43
2024/03/10 10:20:32;;;;;;;;;;;;;;;16.79;43.00;101098.63;4958611;29;990;-41
2024/03/10 10:23:00;;;;;;;;;;;;;;;17.26;41.51;101087.47;4958515;29;1086;-43
2024/03/10 10:25:27;;;;;;;;;;;;;;;16.35;43.65;101087.41;4958152;29;1022;-41
2024/03/10 10:27:54;;;;;;;;;;;;;;;15.94;44.63;101079.38;4958749;29;1973;-43
2024/03/10 10:30:22;;;;;;;;;;;;;;;15.74;44.98;101070.03;4958255;29;2566;-42
2024/03/10 10:32:48;;;;;;;;;;;;;;;15.52;45.30;101072.28;4958547;28;1142;-43
2024/03/10 10:35:14;;;;;;;;;;;;;;;16.57;43.64;101078.81;4958011;29;1343;-42
2024/03/10 10:37:40;;;;;;;;;;;;;;;17.47;41.28;101066.47;4958574;29;1104;-46
2024/03/10 10:40:11;;;;;;;;;;;;;;;16.46;43.45;101076.91;4957926;28;1198;-40
2024/03/10 10:42:37;;;;;;;;;;;;;;;16.01;44.56;101077.19;4958468;29;998;-39
2024/03/10 10:45:04;;;;;;;;;;;;;;;15.84;45.01;101071.16;4952133;29;1122;-41
2024/03/10 10:47:32;;;;;;;;;;;;;;;15.67;45.64;101070.44;4941423;29;1910;-40
2024/03/10 10:49:59;;;;;;;;;;;;;;;15.49;45.77;101066.31;4940966;29;1094;-45
2024/03/10 10:52:24;;;;;;;;;;;;;;;15.60;45.82;101057.69;4945936;29;1057;-41
2024/03/10 10:54:50;;;;;;;;;;;;;;;17.01;42.59;101060.78;4957506;29;1205;-42
2024/03/10 10:57:15;;;;;;;;;;;;;;;16.84;42.46;101063.75;4957522;29;1145;-42
2024/03/10 10:59:46;;;;;;;;;;;;;;;16.11;44.46;101051.75;4940540;29;1386;-42
2024/03/10 11:02:19;;;;;;;;;;;;;;;15.84;44.84;101044.63;4957758;29;2666;-40
2024/03/10 11:04:47;;;;;;;;;;;;;;;15.54;45.50;101043.88;4957233;29;1097;-39
2024/03/10 11:07:15;;;;;;;;;;;;;;;16.20;44.49;101041.50;4958056;29;1973;-41
2024/03/10 11:09:41;;;;;;;;;;;;;;;17.34;41.65;101041.72;4958377;29;1073;-43
2024/03/10 11:12:16;;;;;;;;;;;;;;;16.37;43.86;101033.22;4955916;29;971;-40
2024/03/10 11:14:42;;;;;;;;;;;;;;;15.86;44.95;101023.31;4946453;29;1086;-43
2024/03/10 11:17:11;;;;;;;;;;;;;;;15.67;45.52;101027.16;4957406;29;991;-41
2024/03/10 11:19:38;;;;;;;;;;;;;;;15.54;45.54;101035.91;4957860;29;1224;-41
2024/03/10 11:22:04;;;;;;;;;;;;;;;16.01;45.10;101029.44;4928465;29;1162;-41
2024/03/10 11:24:30;;;;;;;;;;;;;;;17.31;42.06;101020.66;4956423;29;1327;-40
2024/03/10 11:27:15;;;;;;;;;;;;;;;16.85;42.59;101021.13;4937612;29;1964;-41
2024/03/10 11:29:41;;;;;;;;;;;;;;;16.13;44.20;101022.47;4953594;29;1109;-42
2024/03/10 11:32:25;;;;;;;;;;;;;;;15.78;44.86;101014.03;4957522;28;2761;-40
2024/03/10 11:34:50;;;;;;;;;;;;;;;15.57;45.52;101007.47;4957576;29;1005;-42
2024/03/10 11:37:19;;;;;;;;;;;;;;;15.50;46.00;100999.91;4953799;29;900;-43
2024/03/10 11:39:44;;;;;;;;;;;;;;;16.63;43.22;101001.38;4957715;28;1065;-40
2024/03/10 11:42:10;;;;;;;;;;;;;;;17.42;41.39;100999.47;4949682;29;1119;-41
2024/03/10 11:44:36;;;;;;;;;;;;;;;16.48;43.62;100999.78;4957370;29;994;-44
2024/03/10 11:47:05;;;;;;;;;;;;;;;16.00;44.59;100996.72;4957761;29;1977;-42
2024/03/10 11:49:31;;;;;;;;;;;;;;;15.79;45.17;100996.31;4952195;29;1077;-41
2024/03/10 11:51:57;;;;;;;;;;;;;;;15.57;45.52;100991.56;4950661;28;1109;-39
2024/03/10 11:54:22;;;;;;;;;;;;;;;17.02;42.60;100990.72;4961165;29;1197;-43
2024/03/10 11:56:51;;;;;;;;;;;;;;;17.18;41.79;100994.97;4960401;29;1129;-42
2024/03/10 11:59:17;;;;;;;;;;;;;;;16.33;43.98;100985.75;4933097;29;1066;-46
2024/03/10 12:01:42;;;;;;;;;;;;;;;15.90;45.03;100987.63;4960468;29;2448;-41
2024/03/10 12:04:09;;;;;;;;;;;;;;;15.78;45.16;100986.69;4961049;29;1018;-43
2024/03/10 12:06:35;;;;;;;;;;;;;;;15.55;45.70;100986.34;4960868;29;1894;-41
2024/03/10 12:09:00;;;;;;;;;;;;;;;15.81;45.27;100990.91;4935031;29;1142;-40
2024/03/10 12:11:26;;;;;;;;;;;;;;;17.22;42.19;100991.13;4940374;29;1205;-45
2024/03/10 12:13:52;;;;;;;;;;;;;;;17.02;42.17;100988.06;4954157;29;956;-41
2024/03/10 12:16:19;;;;;;;;;;;;;;;16.19;44.35;100987.53;4958086;29;1081;-41
2024/03/10 12:18:44;;;;;;;;;;;;;;;15.87;44.87;100991.38;4951007;29;1165;-41
2024/03/10 12:21:12;;;;;;;;;;;;;;;15.71;45.41;100986.22;4947955;29;1125;-40
2024/03/10 12:23:38;;;;;;;;;;;;;;;15.61;45.92;100987.78;4960629;29;1069;-40
2024/03/10 12:26:04;;;;;;;;;;;;;;;16.48;42.25;100885.59;4960456;29;859;-40
2024/03/10 12:28:29;;;;;;;;;;;;;;;16.98;42.42;101002.50;4959332;29;1910;-40
2024/03/10 12:30:58;;;;;;;;;;;;;;;16.22;44.19;101003.25;4960152;29;2452;-41
2024/03/10 12:33:24;;;;;;;;;;;;;;;15.88;45.10;100993.06;4961112;28;1128;-39
2024/03/10 12:35:51;;;;;;;;;;;;;;;15.67;45.66;100996.19;4960543;29;1042;-38
2024/03/10 12:38:17;;;;;;;;;;;;;;;15.75;45.81;100995.66;4951241;29;975;-39
2024/03/10 12:40:43;;;;;;;;;;;;;;;17.24;42.21;100991.00;4952044;29;991;-37
2024/03/10 12:43:08;;;;;;;;;;;;;;;16.88;42.71;100993.50;4960292;29;1132;-40
2024/03/10 12:45:34;;;;;;;;;;;;;;;16.26;44.31;100991.50;4960242;29;1009;-41
2024/03/10 12:47:59;;;;;;;;;;;;;;;15.94;44.93;100994.47;4960550;29;1914;-42
2024/03/10 12:50:25;;;;;;;;;;;;;;;15.62;46.00;100994.75;4957050;29;972;-42
2024/03/10 12:52:50;;;;;;;;;;;;;;;15.45;46.16;100995.88;4960275;29;1006;-43
2024/03/10 12:55:18;;;;;;;;;;;;;;;16.05;45.12;100999.06;4945476;29;1205;-41
2024/03/10 12:57:44;;;;;;;;;;;;;;;17.37;42.32;101002.47;4949473;29;1069;-42
2024/03/10 13:00:22;;;;;;;;;;;;;;;16.79;42.97;101000.31;4960293;29;1089;-42
2024/03/10 13:02:49;;;;;;;;;;;;;;;16.13;44.63;100999.41;4951113;28;982;-42
2024/03/10 13:05:14;;;;;;;;;;;;;;;15.84;45.21;100999.53;4946596;29;1164;-39